Time;durP1;ratioP1;P1;durP2;ratioP2;P2;SDS_P1;SDS_P2;PMS_P1;PMS_P2;Temp;Humidity;BMP_temperature;BMP_pressure;BME280_temperature;BME280_humidity;BME280_pressure;Samples;Min_cycle;Max_cycle;Signal;HPM_P1;HPM_P2
2021/07/16 00:00:29;;;;;;;13.35;7.05;;;;;;;;;;2073585;28;20173;-60
2021/07/16 00:01:30;;;;;;;19.05;8.35;;;;;;;;;;2072821;28;20181;-61
2021/07/16 00:02:31;;;;;;;14.98;7.20;;;;;;;;;;2069475;28;20224;-60
2021/07/16 00:03:31;;;;;;;14.82;7.05;;;;;;;;;;2065301;28;20186;-60
2021/07/16 00:04:31;;;;;;;16.13;7.07;;;;;;;;;;2068477;28;20336;-64
2021/07/16 00:05:31;;;;;;;12.95;7.97;;;;;;;;;;2072172;28;20251;-60
2021/07/16 00:06:32;;;;;;;18.10;7.85;;;;;;;;;;2073348;28;20207;-60
2021/07/16 00:07:32;;;;;;;13.45;7.35;;;;;;;;;;2072971;28;20255;-58
2021/07/16 00:08:32;;;;;;;17.63;7.82;;;;;;;;;;2069765;28;20560;-58
2021/07/16 00:09:32;;;;;;;14.68;7.82;;;;;;;;;;2073108;28;20238;-60
2021/07/16 00:10:33;;;;;;;13.07;7.30;;;;;;;;;;2073869;28;20271;-59
2021/07/16 00:11:34;;;;;;;11.57;7.63;;;;;;;;;;2066899;28;20178;-58
2021/07/16 00:12:35;;;;;;;14.52;7.00;;;;;;;;;;2065849;28;20295;-61
2021/07/16 00:13:35;;;;;;;16.17;7.57;;;;;;;;;;2065679;28;20260;-60
2021/07/16 00:14:35;;;;;;;15.18;7.68;;;;;;;;;;2065630;28;20212;-61
2021/07/16 00:15:36;;;;;;;14.43;7.63;;;;;;;;;;2072394;28;20169;-59
2021/07/16 00:16:38;;;;;;;12.18;7.00;;;;;;;;;;2073046;28;20180;-61
2021/07/16 00:17:38;;;;;;;11.93;7.28;;;;;;;;;;2066391;28;20184;-60
2021/07/16 00:18:38;;;;;;;15.90;7.43;;;;;;;;;;2072604;28;20176;-61
2021/07/16 00:19:39;;;;;;;14.68;7.97;;;;;;;;;;2072373;28;20300;-60
2021/07/16 00:20:40;;;;;;;10.07;6.90;;;;;;;;;;2073055;28;20172;-60
2021/07/16 00:21:41;;;;;;;13.77;7.28;;;;;;;;;;2065779;28;20600;-61
2021/07/16 00:22:41;;;;;;;12.60;7.82;;;;;;;;;;2072654;28;20181;-61
2021/07/16 00:23:42;;;;;;;14.23;8.20;;;;;;;;;;2067903;28;20181;-59
2021/07/16 00:24:42;;;;;;;15.38;7.82;;;;;;;;;;2072885;28;20750;-60
2021/07/16 00:25:43;;;;;;;13.45;7.80;;;;;;;;;;2073100;28;20177;-60
2021/07/16 00:26:46;;;;;;;10.98;7.65;;;;;;;;;;2065835;28;20464;-60
2021/07/16 00:27:46;;;;;;;16.48;7.50;;;;;;;;;;2064520;28;20269;-60
2021/07/16 00:28:46;;;;;;;14.23;6.95;;;;;;;;;;2065729;28;20173;-60
2021/07/16 00:29:47;;;;;;;11.07;7.03;;;;;;;;;;2072798;28;20195;-61
2021/07/16 00:30:47;;;;;;;16.08;7.15;;;;;;;;;;2072851;28;20641;-59
2021/07/16 00:31:47;;;;;;;13.32;7.20;;;;;;;;;;2071931;28;20224;-59
2021/07/16 00:32:48;;;;;;;14.68;7.03;;;;;;;;;;2070577;28;20185;-61
2021/07/16 00:33:51;;;;;;;18.15;8.23;;;;;;;;;;2065456;28;20177;-60
2021/07/16 00:34:51;;;;;;;13.38;6.93;;;;;;;;;;2073050;28;20184;-59
2021/07/16 00:35:51;;;;;;;14.32;6.88;;;;;;;;;;2072615;28;22237;-58
2021/07/16 00:36:51;;;;;;;14.60;6.45;;;;;;;;;;2072049;28;20199;-59
2021/07/16 00:37:52;;;;;;;9.82;6.65;;;;;;;;;;2072387;28;20171;-59
2021/07/16 00:38:52;;;;;;;11.45;6.45;;;;;;;;;;2072371;28;20169;-58
2021/07/16 00:39:52;;;;;;;11.85;6.60;;;;;;;;;;2072899;28;20184;-60
2021/07/16 00:40:52;;;;;;;12.98;7.00;;;;;;;;;;2073467;28;20239;-59
2021/07/16 00:41:53;;;;;;;16.20;7.57;;;;;;;;;;2073348;28;20231;-60
2021/07/16 00:42:53;;;;;;;10.95;5.93;;;;;;;;;;2069889;28;20185;-60
2021/07/16 00:43:53;;;;;;;12.23;6.70;;;;;;;;;;2072304;28;20268;-59
2021/07/16 00:44:53;;;;;;;9.00;6.40;;;;;;;;;;2068205;28;20173;-59
2021/07/16 00:45:54;;;;;;;11.38;7.03;;;;;;;;;;2070654;28;20178;-58
2021/07/16 00:46:54;;;;;;;11.75;6.07;;;;;;;;;;2073310;28;20223;-61
2021/07/16 00:47:54;;;;;;;11.02;6.00;;;;;;;;;;2064204;28;20173;-62
2021/07/16 00:48:55;;;;;;;10.13;6.10;;;;;;;;;;2064130;28;20874;-61
2021/07/16 00:49:55;;;;;;;9.80;6.28;;;;;;;;;;2066260;28;20187;-60
2021/07/16 00:50:55;;;;;;;8.38;5.68;;;;;;;;;;2065914;28;20174;-61
2021/07/16 00:51:55;;;;;;;9.95;6.70;;;;;;;;;;2072418;28;20172;-60
2021/07/16 00:52:56;;;;;;;7.00;5.85;;;;;;;;;;2064489;28;20583;-61
2021/07/16 00:53:56;;;;;;;9.30;6.03;;;;;;;;;;2067287;28;20288;-60
2021/07/16 00:54:57;;;;;;;7.53;6.13;;;;;;;;;;2071760;28;20543;-59
2021/07/16 00:55:57;;;;;;;8.40;6.28;;;;;;;;;;2072563;28;20677;-60
2021/07/16 00:56:57;;;;;;;8.30;6.80;;;;;;;;;;2072775;28;20255;-61
2021/07/16 00:57:58;;;;;;;10.13;6.90;;;;;;;;;;2072759;28;20177;-58
2021/07/16 00:58:58;;;;;;;9.68;6.97;;;;;;;;;;2071577;28;20209;-61
2021/07/16 00:59:59;;;;;;;10.00;6.75;;;;;;;;;;2072280;28;20175;-60
2021/07/16 01:00:59;;;;;;;13.15;6.93;;;;;;;;;;2067329;28;20177;-57
2021/07/16 01:02:00;;;;;;;11.88;7.80;;;;;;;;;;2072564;28;20223;-58
2021/07/16 01:03:01;;;;;;;11.40;7.43;;;;;;;;;;2067676;28;20162;-61
2021/07/16 01:04:01;;;;;;;11.55;7.00;;;;;;;;;;2068028;28;20182;-59
2021/07/16 01:05:02;;;;;;;8.60;7.47;;;;;;;;;;2066617;28;20197;-60
2021/07/16 01:06:02;;;;;;;14.15;7.88;;;;;;;;;;2069295;28;20180;-60
2021/07/16 01:07:03;;;;;;;14.88;8.32;;;;;;;;;;2067091;28;20180;-59
2021/07/16 01:08:03;;;;;;;14.07;7.53;;;;;;;;;;2070657;28;20161;-59
2021/07/16 01:09:05;;;;;;;12.70;7.90;;;;;;;;;;2067795;28;20220;-60
2021/07/16 01:10:09;;;;;;;12.02;7.60;;;;;;;;;;2072176;28;20177;-59
2021/07/16 01:11:09;;;;;;;13.77;8.48;;;;;;;;;;2063134;28;20189;-58
2021/07/16 01:12:10;;;;;;;14.52;7.72;;;;;;;;;;2067072;28;20336;-60
2021/07/16 01:13:13;;;;;;;14.07;7.90;;;;;;;;;;2068100;28;20165;-59
2021/07/16 01:14:14;;;;;;;14.27;7.05;;;;;;;;;;2071609;28;20188;-57
2021/07/16 01:15:14;;;;;;;14.88;8.20;;;;;;;;;;2072441;28;20161;-60
2021/07/16 01:16:14;;;;;;;10.30;8.07;;;;;;;;;;2071871;28;20220;-60
2021/07/16 01:17:14;;;;;;;12.93;8.00;;;;;;;;;;2073010;28;20248;-59
2021/07/16 01:18:15;;;;;;;13.40;8.13;;;;;;;;;;2073121;28;20256;-59
2021/07/16 01:19:20;;;;;;;12.15;8.40;;;;;;;;;;2067553;28;20888;-60
2021/07/16 01:20:27;;;;;;;14.57;7.80;;;;;;;;;;2063929;28;20573;-59
2021/07/16 01:21:29;;;;;;;17.30;8.65;;;;;;;;;;2056748;28;20836;-59
2021/07/16 01:22:31;;;;;;;13.45;7.90;;;;;;;;;;2070762;28;20271;-57
2021/07/16 01:23:31;;;;;;;11.13;7.15;;;;;;;;;;2072270;28;20177;-59
2021/07/16 01:24:31;;;;;;;11.40;7.82;;;;;;;;;;2066455;28;20231;-55
2021/07/16 01:25:32;;;;;;;14.23;8.13;;;;;;;;;;2071996;28;20185;-59
2021/07/16 01:26:32;;;;;;;13.20;8.50;;;;;;;;;;2070477;28;20245;-58
2021/07/16 01:27:33;;;;;;;17.25;8.25;;;;;;;;;;2072619;28;20584;-56
2021/07/16 01:28:37;;;;;;;14.15;7.95;;;;;;;;;;2071281;28;20605;-60
2021/07/16 01:29:38;;;;;;;11.57;7.90;;;;;;;;;;2071474;28;20558;-60
2021/07/16 01:30:39;;;;;;;15.70;8.48;;;;;;;;;;2072389;28;20180;-60
2021/07/16 01:31:40;;;;;;;13.68;7.82;;;;;;;;;;2072910;28;20588;-57
2021/07/16 01:32:41;;;;;;;15.80;7.85;;;;;;;;;;2066254;28;20231;-60
2021/07/16 01:33:41;;;;;;;13.57;7.32;;;;;;;;;;2072065;28;20177;-55
2021/07/16 01:34:42;;;;;;;14.00;7.85;;;;;;;;;;2071919;28;20177;-60
2021/07/16 01:35:42;;;;;;;16.38;8.38;;;;;;;;;;2072247;28;20272;-60
2021/07/16 01:36:43;;;;;;;12.30;7.30;;;;;;;;;;2072445;28;20181;-59
2021/07/16 01:37:44;;;;;;;12.00;7.85;;;;;;;;;;2073032;28;20192;-59
2021/07/16 01:38:44;;;;;;;14.88;7.78;;;;;;;;;;2068338;28;20178;-59
2021/07/16 01:39:44;;;;;;;12.07;7.85;;;;;;;;;;2064220;28;20693;-61
2021/07/16 01:40:46;;;;;;;11.70;7.35;;;;;;;;;;2070011;28;20255;-58
2021/07/16 01:41:46;;;;;;;15.15;7.60;;;;;;;;;;2073016;28;20227;-61
2021/07/16 01:42:49;;;;;;;9.07;6.95;;;;;;;;;;2072665;28;20905;-60
2021/07/16 01:43:49;;;;;;;8.82;7.20;;;;;;;;;;2065518;28;20706;-60
2021/07/16 01:44:49;;;;;;;11.73;7.78;;;;;;;;;;2070143;28;20293;-60
2021/07/16 01:45:49;;;;;;;11.68;7.55;;;;;;;;;;2072657;28;20165;-60
2021/07/16 01:46:50;;;;;;;9.27;7.25;;;;;;;;;;2072756;28;20215;-61
2021/07/16 01:47:50;;;;;;;10.80;7.25;;;;;;;;;;2072025;28;20188;-61
2021/07/16 01:48:50;;;;;;;10.25;7.22;;;;;;;;;;2072030;28;20243;-61
2021/07/16 01:49:51;;;;;;;14.40;7.40;;;;;;;;;;2070827;28;20204;-61
2021/07/16 01:50:51;;;;;;;10.00;7.18;;;;;;;;;;2072648;28;20165;-60
2021/07/16 01:51:51;;;;;;;12.02;7.50;;;;;;;;;;2069081;28;20196;-59
2021/07/16 01:52:51;;;;;;;10.77;7.25;;;;;;;;;;2071949;28;20556;-58
2021/07/16 01:53:52;;;;;;;13.40;7.70;;;;;;;;;;2068783;28;20272;-60
2021/07/16 01:54:52;;;;;;;10.35;7.88;;;;;;;;;;2068058;28;20521;-59
2021/07/16 01:55:52;;;;;;;12.43;7.60;;;;;;;;;;2072421;28;20261;-61
2021/07/16 01:56:53;;;;;;;12.07;7.60;;;;;;;;;;2071710;28;20267;-60
2021/07/16 01:57:54;;;;;;;12.02;7.15;;;;;;;;;;2073003;28;20729;-61
2021/07/16 01:58:55;;;;;;;8.07;7.18;;;;;;;;;;2071747;28;20180;-64
2021/07/16 01:59:55;;;;;;;14.00;7.13;;;;;;;;;;2072061;28;20276;-61
2021/07/16 02:00:55;;;;;;;10.93;8.00;;;;;;;;;;2068325;28;20216;-60
2021/07/16 02:01:55;;;;;;;14.85;8.25;;;;;;;;;;2072735;28;20675;-61
2021/07/16 02:02:57;;;;;;;12.25;8.32;;;;;;;;;;2071619;28;20177;-60
2021/07/16 02:03:57;;;;;;;14.88;9.20;;;;;;;;;;2072242;28;20180;-60
2021/07/16 02:04:57;;;;;;;11.10;8.55;;;;;;;;;;2072503;28;20658;-60
2021/07/16 02:05:59;;;;;;;12.27;8.40;;;;;;;;;;2069903;28;20669;-60
2021/07/16 02:07:00;;;;;;;14.07;8.95;;;;;;;;;;2072602;28;20160;-60
2021/07/16 02:08:02;;;;;;;12.98;8.93;;;;;;;;;;2072430;28;20188;-60
2021/07/16 02:09:04;;;;;;;13.70;8.48;;;;;;;;;;2072464;28;20180;-61
2021/07/16 02:10:04;;;;;;;15.48;9.15;;;;;;;;;;2070892;28;20185;-60
2021/07/16 02:11:05;;;;;;;15.25;8.68;;;;;;;;;;2072870;28;20169;-57
2021/07/16 02:12:06;;;;;;;13.80;8.63;;;;;;;;;;2070635;28;20178;-60
2021/07/16 02:13:06;;;;;;;11.82;9.13;;;;;;;;;;2066245;28;20234;-60
2021/07/16 02:14:06;;;;;;;15.10;8.70;;;;;;;;;;2066066;28;20196;-61
2021/07/16 02:15:26;;;;;;;15.85;8.55;;;;;;;;;;2069417;28;20226;-60
2021/07/16 02:16:27;;;;;;;16.48;9.20;;;;;;;;;;2074092;28;20173;-61
2021/07/16 02:17:27;;;;;;;17.20;9.52;;;;;;;;;;2068704;28;20576;-57
2021/07/16 02:18:27;;;;;;;15.25;8.05;;;;;;;;;;2073905;28;20231;-58
2021/07/16 02:19:32;;;;;;;16.55;8.55;;;;;;;;;;2072882;28;20224;-58
2021/07/16 02:20:34;;;;;;;18.27;9.05;;;;;;;;;;2074620;28;20198;-60
2021/07/16 02:21:34;;;;;;;15.57;9.15;;;;;;;;;;2073752;28;20193;-60
2021/07/16 02:22:34;;;;;;;16.58;8.65;;;;;;;;;;2073463;28;20169;-60
2021/07/16 02:23:34;;;;;;;15.27;9.15;;;;;;;;;;2074072;28;20576;-60
2021/07/16 02:24:35;;;;;;;15.48;8.35;;;;;;;;;;2071805;28;20254;-57
2021/07/16 02:25:35;;;;;;;19.48;8.50;;;;;;;;;;2072876;28;20252;-60
2021/07/16 02:26:38;;;;;;;19.63;8.52;;;;;;;;;;2073571;28;20204;-57
2021/07/16 02:27:39;;;;;;;13.05;8.02;;;;;;;;;;2072001;28;20586;-61
2021/07/16 02:28:39;;;;;;;14.70;8.98;;;;;;;;;;2064469;28;20200;-56
2021/07/16 02:29:39;;;;;;;16.90;7.70;;;;;;;;;;2073058;28;20243;-60
2021/07/16 02:30:40;;;;;;;14.25;8.65;;;;;;;;;;2072996;28;20173;-61
2021/07/16 02:31:40;;;;;;;16.77;8.25;;;;;;;;;;2064544;28;20232;-60
2021/07/16 02:32:40;;;;;;;13.23;8.10;;;;;;;;;;2071731;28;20189;-60
2021/07/16 02:33:41;;;;;;;17.52;8.68;;;;;;;;;;2073286;28;20195;-60
2021/07/16 02:34:41;;;;;;;18.33;8.45;;;;;;;;;;2068636;28;20185;-60
2021/07/16 02:35:43;;;;;;;13.07;9.15;;;;;;;;;;2067012;28;20693;-60
2021/07/16 02:36:43;;;;;;;11.73;8.48;;;;;;;;;;2068392;28;20177;-58
2021/07/16 02:37:43;;;;;;;17.55;8.80;;;;;;;;;;2070940;28;20200;-58
2021/07/16 02:38:43;;;;;;;11.90;8.43;;;;;;;;;;2064496;28;20201;-56
2021/07/16 02:39:44;;;;;;;16.52;9.57;;;;;;;;;;2064848;28;20722;-56
2021/07/16 02:40:44;;;;;;;20.13;9.68;;;;;;;;;;2067300;28;20257;-57
2021/07/16 02:41:44;;;;;;;15.05;9.15;;;;;;;;;;2073661;28;20172;-59
2021/07/16 02:42:45;;;;;;;16.08;8.70;;;;;;;;;;2066205;28;20192;-60
2021/07/16 02:43:45;;;;;;;14.90;9.20;;;;;;;;;;2073271;28;20169;-55
2021/07/16 02:44:46;;;;;;;15.52;9.48;;;;;;;;;;2068843;28;20681;-60
2021/07/16 02:45:46;;;;;;;17.30;9.00;;;;;;;;;;2070446;28;20177;-57
2021/07/16 02:46:46;;;;;;;14.27;8.63;;;;;;;;;;2066451;28;20801;-60
2021/07/16 02:47:48;;;;;;;18.38;9.15;;;;;;;;;;2072789;28;20685;-58
2021/07/16 02:48:48;;;;;;;13.85;8.85;;;;;;;;;;2067977;28;20177;-60
2021/07/16 02:49:48;;;;;;;17.75;9.52;;;;;;;;;;2072900;28;20238;-61
2021/07/16 02:50:49;;;;;;;15.65;8.95;;;;;;;;;;2073517;28;20572;-60
2021/07/16 02:51:49;;;;;;;16.88;8.88;;;;;;;;;;2067310;28;20170;-57
2021/07/16 02:52:49;;;;;;;24.13;9.95;;;;;;;;;;2071731;28;20173;-61
2021/07/16 02:53:50;;;;;;;16.50;8.80;;;;;;;;;;2065132;28;20245;-61
2021/07/16 02:54:50;;;;;;;19.60;9.32;;;;;;;;;;2065237;28;20166;-57
2021/07/16 02:55:50;;;;;;;16.35;8.98;;;;;;;;;;2066203;28;20251;-60
2021/07/16 02:56:51;;;;;;;22.88;9.38;;;;;;;;;;2065751;28;20215;-59
2021/07/16 02:57:52;;;;;;;21.05;9.45;;;;;;;;;;2065468;28;20175;-59
2021/07/16 02:58:52;;;;;;;20.52;10.05;;;;;;;;;;2066173;28;20174;-60
2021/07/16 02:59:52;;;;;;;20.38;9.27;;;;;;;;;;2066169;28;20231;-61
2021/07/16 03:00:53;;;;;;;15.57;9.40;;;;;;;;;;2066271;28;20180;-60
2021/07/16 03:01:54;;;;;;;18.88;9.80;;;;;;;;;;2065876;28;20193;-61
2021/07/16 03:02:54;;;;;;;17.17;9.48;;;;;;;;;;2068480;28;20542;-59
2021/07/16 03:03:54;;;;;;;19.42;9.65;;;;;;;;;;2074254;28;20191;-61
2021/07/16 03:04:55;;;;;;;18.63;9.32;;;;;;;;;;2074393;28;20165;-59
2021/07/16 03:05:55;;;;;;;11.38;9.23;;;;;;;;;;2072620;28;20264;-60
2021/07/16 03:06:56;;;;;;;18.77;9.15;;;;;;;;;;2073568;28;20255;-60
2021/07/16 03:07:57;;;;;;;23.63;10.30;;;;;;;;;;2072632;28;20172;-57
2021/07/16 03:08:57;;;;;;;20.52;9.55;;;;;;;;;;2066124;28;20264;-58
2021/07/16 03:09:57;;;;;;;18.77;9.75;;;;;;;;;;2069317;28;20165;-60
2021/07/16 03:10:57;;;;;;;14.30;8.70;;;;;;;;;;2074233;28;20171;-59
2021/07/16 03:11:58;;;;;;;18.90;9.23;;;;;;;;;;2071390;28;20185;-57
2021/07/16 03:13:02;;;;;;;16.40;9.13;;;;;;;;;;2069860;28;20220;-58
2021/07/16 03:14:03;;;;;;;19.88;9.65;;;;;;;;;;2072361;28;20227;-61
2021/07/16 03:15:07;;;;;;;14.27;8.65;;;;;;;;;;2072078;28;20250;-57
2021/07/16 03:16:07;;;;;;;20.17;11.60;;;;;;;;;;2068750;28;20193;-59
2021/07/16 03:17:07;;;;;;;17.50;10.05;;;;;;;;;;2073374;28;20173;-57
2021/07/16 03:18:08;;;;;;;21.10;9.05;;;;;;;;;;2072723;28;20626;-59
2021/07/16 03:19:08;;;;;;;16.33;9.70;;;;;;;;;;2073164;28;20184;-56
2021/07/16 03:20:14;;;;;;;27.75;15.85;;;;;;;;;;2094889;22;20232;-52
2021/07/16 03:21:14;;;;;;;13.23;8.98;;;;;;;;;;2072642;28;20177;-53
2021/07/16 03:22:14;;;;;;;18.58;8.98;;;;;;;;;;2073268;28;20260;-52
2021/07/16 03:23:15;;;;;;;21.40;8.98;;;;;;;;;;2073430;28;20592;-52
2021/07/16 03:24:16;;;;;;;17.08;11.02;;;;;;;;;;2067023;28;20644;-54
2021/07/16 03:25:17;;;;;;;12.55;8.73;;;;;;;;;;2072802;28;20547;-51
2021/07/16 03:26:17;;;;;;;21.98;10.15;;;;;;;;;;2068860;28;20181;-51
2021/07/16 03:27:18;;;;;;;19.10;9.45;;;;;;;;;;2070449;28;20181;-53
2021/07/16 03:28:19;;;;;;;16.27;9.55;;;;;;;;;;2068683;28;20251;-54
2021/07/16 03:29:19;;;;;;;18.20;9.40;;;;;;;;;;2072260;28;20200;-55
2021/07/16 03:30:21;;;;;;;19.08;8.50;;;;;;;;;;2067755;28;20745;-54
2021/07/16 03:31:21;;;;;;;19.40;9.85;;;;;;;;;;2069806;28;20818;-52
2021/07/16 03:32:21;;;;;;;16.33;9.32;;;;;;;;;;2073111;28;20169;-56
2021/07/16 03:33:21;;;;;;;17.40;9.38;;;;;;;;;;2072218;28;20188;-55
2021/07/16 03:34:22;;;;;;;17.42;8.57;;;;;;;;;;2070548;28;20906;-53
2021/07/16 03:35:22;;;;;;;15.95;9.35;;;;;;;;;;2066013;28;20264;-51
2021/07/16 03:36:22;;;;;;;18.45;9.27;;;;;;;;;;2072069;28;20200;-55
2021/07/16 03:37:23;;;;;;;18.80;9.23;;;;;;;;;;2070973;28;20542;-56
2021/07/16 03:38:23;;;;;;;17.60;8.55;;;;;;;;;;2073687;28;20177;-55
2021/07/16 03:39:23;;;;;;;18.08;9.15;;;;;;;;;;2073987;28;20224;-51
2021/07/16 03:40:27;;;;;;;20.90;9.82;;;;;;;;;;2073225;28;20291;-55
2021/07/16 03:41:28;;;;;;;21.33;9.10;;;;;;;;;;2073638;28;20173;-55
2021/07/16 03:42:28;;;;;;;18.15;9.35;;;;;;;;;;2074113;28;20200;-55
2021/07/16 03:43:28;;;;;;;21.60;8.88;;;;;;;;;;2072996;28;20751;-53
2021/07/16 03:44:29;;;;;;;17.65;9.15;;;;;;;;;;2074023;28;20227;-52
2021/07/16 03:45:30;;;;;;;16.77;9.07;;;;;;;;;;2074025;28;20196;-55
2021/07/16 03:46:31;;;;;;;22.08;9.32;;;;;;;;;;2067590;28;20608;-52
2021/07/16 03:47:31;;;;;;;21.27;9.90;;;;;;;;;;2065930;28;20174;-53
2021/07/16 03:48:32;;;;;;;19.17;9.85;;;;;;;;;;2074025;28;20534;-52
2021/07/16 03:49:32;;;;;;;15.85;8.73;;;;;;;;;;2071755;28;20938;-55
2021/07/16 03:50:33;;;;;;;18.38;9.00;;;;;;;;;;2072946;28;20292;-55
2021/07/16 03:51:33;;;;;;;17.35;9.00;;;;;;;;;;2070352;28;20637;-53
2021/07/16 03:52:33;;;;;;;17.80;9.40;;;;;;;;;;2072948;28;20555;-51
2021/07/16 03:53:34;;;;;;;19.88;9.93;;;;;;;;;;2072989;28;20189;-53
2021/07/16 03:54:35;;;;;;;16.95;9.38;;;;;;;;;;2073894;28;20184;-53
2021/07/16 03:55:36;;;;;;;24.90;9.85;;;;;;;;;;2071478;28;20199;-51
2021/07/16 03:56:36;;;;;;;15.73;9.65;;;;;;;;;;2070318;28;20173;-53
2021/07/16 03:57:40;;;;;;;26.27;9.77;;;;;;;;;;2071262;28;20675;-53
2021/07/16 03:58:41;;;;;;;25.13;10.15;;;;;;;;;;2071085;28;20192;-54
2021/07/16 03:59:41;;;;;;;17.52;9.88;;;;;;;;;;2069190;28;20192;-53
2021/07/16 04:00:42;;;;;;;19.55;9.40;;;;;;;;;;2068109;28;20172;-52
2021/07/16 04:01:43;;;;;;;18.20;9.57;;;;;;;;;;2071355;28;20192;-52
2021/07/16 04:02:43;;;;;;;19.20;8.85;;;;;;;;;;2067465;28;20182;-51
2021/07/16 04:03:44;;;;;;;14.80;9.15;;;;;;;;;;2072144;28;20236;-51
2021/07/16 04:04:45;;;;;;;19.90;9.85;;;;;;;;;;2072743;28;20272;-51
2021/07/16 04:05:45;;;;;;;15.82;8.95;;;;;;;;;;2077729;28;20179;-50
2021/07/16 04:06:56;;;;;;;20.15;9.82;;;;;;;;;;2078821;28;20231;-51
2021/07/16 04:08:06;;;;;;;19.73;8.80;;;;;;;;;;2067304;28;20865;-52
2021/07/16 04:10:25;;;;;;;22.88;9.48;;;;;;;;;;2071161;28;20568;-52
2021/07/16 04:11:25;;;;;;;18.63;9.45;;;;;;;;;;2067316;28;20189;-56
2021/07/16 04:12:26;;;;;;;22.77;8.48;;;;;;;;;;2066153;28;20208;-56
2021/07/16 04:13:26;;;;;;;15.77;7.95;;;;;;;;;;2065233;28;20219;-55
2021/07/16 04:14:26;;;;;;;17.58;8.75;;;;;;;;;;2072832;28;20788;-52
2021/07/16 04:15:26;;;;;;;14.68;8.55;;;;;;;;;;2072658;28;20525;-52
2021/07/16 04:16:27;;;;;;;19.10;8.65;;;;;;;;;;2065652;28;20174;-53
2021/07/16 04:17:27;;;;;;;14.13;9.23;;;;;;;;;;2071019;28;20255;-56
2021/07/16 04:18:28;;;;;;;16.25;8.07;;;;;;;;;;2073188;28;20177;-55
2021/07/16 04:19:28;;;;;;;20.85;9.18;;;;;;;;;;2067376;28;20177;-54
2021/07/16 04:20:29;;;;;;;20.13;9.20;;;;;;;;;;2066527;28;20209;-56
2021/07/16 04:21:29;;;;;;;21.95;8.50;;;;;;;;;;2066048;28;20280;-53
2021/07/16 04:22:29;;;;;;;13.15;8.27;;;;;;;;;;2067173;28;20185;-56
2021/07/16 04:23:29;;;;;;;13.82;7.90;;;;;;;;;;2068206;28;20336;-55
2021/07/16 04:24:30;;;;;;;20.05;8.10;;;;;;;;;;2072153;28;20180;-53
2021/07/16 04:25:30;;;;;;;11.68;7.88;;;;;;;;;;2072644;28;20718;-55
2021/07/16 04:26:31;;;;;;;20.92;8.77;;;;;;;;;;2069279;28;20679;-51
2021/07/16 04:27:31;;;;;;;17.00;8.38;;;;;;;;;;2070687;28;20660;-55
2021/07/16 04:28:31;;;;;;;14.90;8.90;;;;;;;;;;2066478;28;20186;-51
2021/07/16 04:29:32;;;;;;;20.25;9.18;;;;;;;;;;2070048;28;20180;-54
2021/07/16 04:30:33;;;;;;;15.43;8.43;;;;;;;;;;2071580;28;20208;-52
2021/07/16 04:31:33;;;;;;;16.35;8.25;;;;;;;;;;2068343;28;20204;-51
2021/07/16 04:32:33;;;;;;;16.58;9.00;;;;;;;;;;2071180;28;20252;-52
2021/07/16 04:33:33;;;;;;;15.48;8.43;;;;;;;;;;2071798;28;20177;-48
2021/07/16 04:34:34;;;;;;;15.18;8.20;;;;;;;;;;2068761;28;20180;-52
2021/07/16 04:35:35;;;;;;;18.17;8.88;;;;;;;;;;2071257;28;20548;-51
2021/07/16 04:36:35;;;;;;;15.98;8.15;;;;;;;;;;2072934;28;20181;-55
2021/07/16 04:37:36;;;;;;;20.33;8.65;;;;;;;;;;2068795;28;20177;-51
2021/07/16 04:38:36;;;;;;;17.73;8.13;;;;;;;;;;2067627;28;20177;-52
2021/07/16 04:39:37;;;;;;;14.05;8.30;;;;;;;;;;2072332;28;20642;-55
2021/07/16 04:40:37;;;;;;;15.20;7.60;;;;;;;;;;2073070;28;20656;-52
2021/07/16 04:41:38;;;;;;;18.63;8.45;;;;;;;;;;2072810;28;20188;-55
2021/07/16 04:42:38;;;;;;;13.13;7.95;;;;;;;;;;2073490;28;20177;-53
2021/07/16 04:43:38;;;;;;;15.60;7.85;;;;;;;;;;2071708;28;20196;-53
2021/07/16 04:44:38;;;;;;;15.30;7.78;;;;;;;;;;2066336;28;20264;-53
2021/07/16 04:45:39;;;;;;;14.85;7.45;;;;;;;;;;2064673;28;20208;-56
2021/07/16 04:46:39;;;;;;;18.73;8.15;;;;;;;;;;2072063;28;20583;-57
2021/07/16 04:47:40;;;;;;;20.13;8.23;;;;;;;;;;2072329;28;20231;-54
2021/07/16 04:48:40;;;;;;;18.27;7.90;;;;;;;;;;2072535;28;20523;-53
2021/07/16 04:49:40;;;;;;;14.05;8.38;;;;;;;;;;2064105;28;20613;-54
2021/07/16 04:50:40;;;;;;;16.38;7.95;;;;;;;;;;2071117;28;20680;-56
2021/07/16 04:51:41;;;;;;;14.50;8.50;;;;;;;;;;2070123;28;20589;-56
2021/07/16 04:52:42;;;;;;;16.60;8.27;;;;;;;;;;2070857;28;20196;-56
2021/07/16 04:53:42;;;;;;;18.50;8.20;;;;;;;;;;2068186;28;20188;-56
2021/07/16 04:54:42;;;;;;;16.33;7.93;;;;;;;;;;2068072;28;20184;-52
2021/07/16 04:55:43;;;;;;;15.55;8.02;;;;;;;;;;2070903;28;20173;-53
2021/07/16 04:56:43;;;;;;;18.05;8.77;;;;;;;;;;2067386;28;20185;-55
2021/07/16 04:57:43;;;;;;;16.08;8.07;;;;;;;;;;2070717;28;20192;-54
2021/07/16 04:58:44;;;;;;;19.17;8.32;;;;;;;;;;2060335;28;20232;-56
2021/07/16 04:59:44;;;;;;;18.05;7.88;;;;;;;;;;2069016;28;20243;-54
2021/07/16 05:00:44;;;;;;;13.80;7.03;;;;;;;;;;2069622;28;20172;-56
2021/07/16 05:01:44;;;;;;;14.10;8.15;;;;;;;;;;2070798;28;20195;-54
2021/07/16 05:02:45;;;;;;;18.52;7.90;;;;;;;;;;2068940;28;20183;-53
2021/07/16 05:03:45;;;;;;;16.65;8.10;;;;;;;;;;2065788;28;20174;-51
2021/07/16 05:04:45;;;;;;;18.38;8.15;;;;;;;;;;2069899;28;20187;-52
2021/07/16 05:05:45;;;;;;;15.52;8.55;;;;;;;;;;2065767;28;20183;-54
2021/07/16 05:06:46;;;;;;;22.38;8.40;;;;;;;;;;2072057;28;20201;-52
2021/07/16 05:07:46;;;;;;;16.60;7.93;;;;;;;;;;2066644;28;20260;-53
2021/07/16 05:08:47;;;;;;;19.85;7.65;;;;;;;;;;2068886;28;20162;-54
2021/07/16 05:09:47;;;;;;;14.70;7.43;;;;;;;;;;2073505;28;20180;-56
2021/07/16 05:10:47;;;;;;;13.50;7.82;;;;;;;;;;2069756;28;20184;-53
2021/07/16 05:11:48;;;;;;;17.02;8.43;;;;;;;;;;2065703;28;20177;-53
2021/07/16 05:12:48;;;;;;;14.32;7.90;;;;;;;;;;2067029;28;20181;-54
2021/07/16 05:13:48;;;;;;;17.95;8.45;;;;;;;;;;2068183;28;20677;-52
2021/07/16 05:14:49;;;;;;;15.02;8.13;;;;;;;;;;2077641;28;20226;-53
2021/07/16 05:15:49;;;;;;;12.35;7.60;;;;;;;;;;2073409;28;20181;-54
2021/07/16 05:16:49;;;;;;;17.33;7.40;;;;;;;;;;2071489;28;20173;-52
2021/07/16 05:17:49;;;;;;;17.45;7.15;;;;;;;;;;2072064;28;20193;-55
2021/07/16 05:18:50;;;;;;;20.58;8.25;;;;;;;;;;2070694;28;20185;-51
2021/07/16 05:19:50;;;;;;;15.32;8.85;;;;;;;;;;2072375;28;20194;-52
2021/07/16 05:20:50;;;;;;;14.80;7.82;;;;;;;;;;2067270;28;20258;-54
2021/07/16 05:21:50;;;;;;;18.10;7.68;;;;;;;;;;2065888;28;20284;-52
2021/07/16 05:22:55;;;;;;;19.45;9.32;;;;;;;;;;2072815;28;20197;-52
2021/07/16 05:23:55;;;;;;;16.70;8.20;;;;;;;;;;2074448;28;20180;-53
2021/07/16 05:24:55;;;;;;;16.83;7.80;;;;;;;;;;2079731;28;20187;-52
2021/07/16 05:25:56;;;;;;;15.20;6.90;;;;;;;;;;2070497;28;20271;-52
2021/07/16 05:26:56;;;;;;;11.77;6.97;;;;;;;;;;2075345;28;20188;-51
2021/07/16 05:27:57;;;;;;;17.50;7.88;;;;;;;;;;2071555;28;20231;-54
2021/07/16 05:28:57;;;;;;;20.92;7.22;;;;;;;;;;2071590;28;20200;-52
2021/07/16 05:29:57;;;;;;;14.80;6.75;;;;;;;;;;2071303;28;20223;-52
2021/07/16 05:30:57;;;;;;;14.20;7.57;;;;;;;;;;2070249;28;20204;-52
2021/07/16 05:31:58;;;;;;;13.65;6.97;;;;;;;;;;2066133;28;20170;-54
2021/07/16 05:32:58;;;;;;;16.83;7.40;;;;;;;;;;2069944;28;20635;-52
2021/07/16 05:33:58;;;;;;;16.45;7.68;;;;;;;;;;2068313;28;20189;-57
2021/07/16 05:34:59;;;;;;;16.55;7.53;;;;;;;;;;2071786;28;20231;-52
2021/07/16 05:35:59;;;;;;;20.92;8.45;;;;;;;;;;2069742;28;20173;-52
2021/07/16 05:36:59;;;;;;;12.52;6.78;;;;;;;;;;2070308;28;20184;-51
2021/07/16 05:38:00;;;;;;;13.27;7.18;;;;;;;;;;2070056;28;20201;-51
2021/07/16 05:39:04;;;;;;;15.73;7.20;;;;;;;;;;2070143;28;20197;-53
2021/07/16 05:40:05;;;;;;;27.52;7.78;;;;;;;;;;2069741;28;20201;-54
2021/07/16 05:41:05;;;;;;;16.10;7.53;;;;;;;;;;2069879;28;20233;-51
2021/07/16 05:42:06;;;;;;;18.65;7.85;;;;;;;;;;2070174;28;20546;-51
2021/07/16 05:43:07;;;;;;;18.65;7.75;;;;;;;;;;2069354;28;20268;-51
2021/07/16 05:44:07;;;;;;;13.68;7.03;;;;;;;;;;2071688;28;20238;-51
2021/07/16 05:45:08;;;;;;;18.20;7.50;;;;;;;;;;2068567;28;20228;-51
2021/07/16 05:46:08;;;;;;;15.05;7.57;;;;;;;;;;2058626;28;20185;-52
2021/07/16 05:47:08;;;;;;;13.48;7.10;;;;;;;;;;2070758;28;20276;-50
2021/07/16 05:48:10;;;;;;;22.60;7.57;;;;;;;;;;2072662;28;20649;-55
2021/07/16 05:49:10;;;;;;;15.00;7.03;;;;;;;;;;2064405;28;20177;-51
2021/07/16 05:50:11;;;;;;;15.90;7.05;;;;;;;;;;2068817;28;20196;-50
2021/07/16 05:51:11;;;;;;;19.38;6.90;;;;;;;;;;2071823;28;20184;-53
2021/07/16 05:52:11;;;;;;;14.50;6.95;;;;;;;;;;2071990;28;20684;-52
2021/07/16 05:53:12;;;;;;;17.15;7.00;;;;;;;;;;2072477;28;20206;-53
2021/07/16 05:54:12;;;;;;;16.73;7.47;;;;;;;;;;2067275;28;20275;-52
2021/07/16 05:55:12;;;;;;;22.75;7.70;;;;;;;;;;2067729;28;20169;-52
2021/07/16 05:56:13;;;;;;;21.55;7.55;;;;;;;;;;2072311;28;20219;-52
2021/07/16 05:57:13;;;;;;;20.38;7.75;;;;;;;;;;2067689;28;20536;-57
2021/07/16 05:58:13;;;;;;;20.63;7.32;;;;;;;;;;2068029;28;20222;-52
2021/07/16 05:59:13;;;;;;;24.52;8.30;;;;;;;;;;2068716;28;20186;-54
2021/07/16 06:00:14;;;;;;;18.75;7.60;;;;;;;;;;2066935;28;20215;-53